Time;durP1;ratioP1;P1;durP2;ratioP2;P2;SDS_P1;SDS_P2;PMS_P1;PMS_P2;Temp;Humidity;BMP_temperature;BMP_pressure;BME280_temperature;BME280_humidity;BME280_pressure;Samples;Min_cycle;Max_cycle;Signal;HPM_P1;HPM_P2
2022/11/04 00:01:25;;;;;;;26.05;13.65;;;;;;;16.22;82.32;99941.88;5050780;28;20056;-80
2022/11/04 00:04:11;;;;;;;27.27;14.93;;;;;;;16.22;82.55;99941.88;5039967;28;20052;-81
2022/11/04 00:06:56;;;;;;;24.77;14.05;;;;;;;16.24;82.48;99934.09;5039444;28;20072;-81
2022/11/04 00:09:41;;;;;;;26.08;14.07;;;;;;;16.24;82.65;99922.31;5053129;28;20044;-81
2022/11/04 00:12:27;;;;;;;19.55;12.00;;;;;;;16.23;82.41;99907.03;5039303;28;20048;-80
2022/11/04 00:18:15;;;;;;;20.00;11.30;;;;;;;16.25;82.48;99883.53;5038750;28;19912;-80
2022/11/04 00:30:16;;;;;;;13.27;8.38;;;;;;;16.20;82.36;99867.38;5039963;28;20057;-82
2022/11/04 00:36:04;;;;;;;10.85;7.80;;;;;;;16.19;82.14;99852.13;5039508;28;20412;-82
2022/11/04 00:38:50;;;;;;;13.38;8.63;;;;;;;16.19;82.15;99845.84;5041334;28;20041;-82
2022/11/04 00:41:34;;;;;;;;;;;;;;;16.17;82.11;99840.72;5040642;28;20519;-82
2022/11/04 00:44:19;;;;;;;14.35;8.35;;;;;;;16.16;82.19;99833.66;5039360;28;19913;-82
2022/11/04 00:47:03;;;;;;;;;;;;;;;16.17;82.24;99832.50;5041576;28;20048;-82
2022/11/04 00:49:48;;;;;;;10.90;7.03;;;;;;;16.17;82.20;99828.94;5041832;28;19913;-80
2022/11/04 00:52:33;;;;;;;8.60;6.07;;;;;;;16.16;82.24;99824.63;5041834;28;20048;-81
2022/11/04 00:55:18;;;;;;;;;;;;;;;16.15;82.44;99828.56;5040576;28;20072;-83
2022/11/04 00:58:02;;;;;;;7.82;5.50;;;;;;;16.12;82.52;99821.06;5044451;28;19908;-82
2022/11/04 01:00:47;;;;;;;;;;;;;;;16.14;82.64;99819.53;5043798;28;20053;-83
2022/11/04 01:03:31;;;;;;;10.52;4.95;;;;;;;16.10;82.61;99807.72;5040138;28;19913;-79
2022/11/04 01:06:17;;;;;;;8.45;5.10;;;;;;;16.08;82.59;99798.28;5038026;28;20053;-83
2022/11/04 01:09:05;;;;;;;7.60;4.45;;;;;;;16.07;82.91;99802.97;5039253;28;20043;-83
2022/11/04 01:11:50;;;;;;;7.65;4.82;;;;;;;16.07;82.99;99802.97;5039093;28;20044;-82
2022/11/04 01:14:35;;;;;;;8.23;4.82;;;;;;;16.08;82.84;99787.31;5037646;28;20056;-83
2022/11/04 01:17:20;;;;;;;6.68;4.65;;;;;;;16.07;83.12;99777.50;5037266;28;20416;-82
2022/11/04 01:20:05;;;;;;;5.50;3.35;;;;;;;16.08;82.88;99777.13;5038299;28;20432;-82
2022/11/04 01:22:50;;;;;;;7.18;4.97;;;;;;;16.09;82.89;99766.97;5037661;28;20044;-82
2022/11/04 01:25:39;;;;;;;7.90;4.63;;;;;;;16.10;83.08;99765.81;5041312;28;20534;-82
2022/11/04 01:28:26;;;;;;;6.07;4.05;;;;;;;16.08;83.08;99757.16;5038912;28;20048;-82
2022/11/04 01:31:16;;;;;;;5.13;3.63;;;;;;;16.08;82.83;99749.72;5042723;28;20052;-83
2022/11/04 01:34:01;;;;;;;7.20;4.43;;;;;;;16.05;83.28;99741.47;5037700;28;20040;-82
2022/11/04 01:36:46;;;;;;;4.93;4.40;;;;;;;16.05;83.34;99739.47;5038594;28;20048;-82
2022/11/04 01:39:31;;;;;;;6.10;4.40;;;;;;;16.05;83.61;99736.72;5036735;28;20048;-82
2022/11/04 01:42:19;;;;;;;;;;;;;;;16.05;83.85;99738.72;5040788;28;20519;-82
2022/11/04 01:45:12;;;;;;;7.97;5.03;;;;;;;16.03;84.40;99728.09;5038480;28;20392;-82
2022/11/04 01:48:06;;;;;;;8.00;5.22;;;;;;;16.02;84.57;99723.78;5042259;28;20348;-82
2022/11/04 01:50:53;;;;;;;9.90;5.60;;;;;;;16.03;84.80;99719.88;5040190;28;20048;-82
2022/11/04 01:53:42;;;;;;;8.68;6.10;;;;;;;16.04;84.94;99707.75;5037926;28;20056;-82
2022/11/04 01:56:27;;;;;;;13.35;6.22;;;;;;;16.03;84.92;99706.16;5036817;28;20048;-82
2022/11/04 01:59:16;;;;;;;;;;;;;;;16.04;85.31;99702.28;5037742;28;20048;-83
2022/11/04 02:02:02;;;;;;;11.07;7.45;;;;;;;16.03;85.42;99686.97;5037783;28;20308;-81
2022/11/04 02:04:47;;;;;;;11.55;7.18;;;;;;;16.01;85.50;99669.31;5037547;28;20408;-81
2022/11/04 02:07:32;;;;;;;10.73;6.50;;;;;;;16.02;85.78;99657.19;5036473;28;20048;-82
2022/11/04 02:10:21;;;;;;;10.25;7.68;;;;;;;16.03;85.71;99650.53;5037058;28;20052;-82
2022/11/04 02:13:07;;;;;;;9.77;6.35;;;;;;;16.00;85.86;99638.34;5036840;28;20109;-82
2022/11/04 02:16:22;;;;;;;17.50;8.57;;;;;;;16.02;85.91;99637.97;5036832;28;20048;-81
2022/11/04 02:19:32;;;;;;;14.30;8.03;;;;;;;16.01;85.99;99620.72;5036233;28;20420;-82
2022/11/04 02:22:35;;;;;;;13.30;7.85;;;;;;;16.04;85.87;99621.94;5053110;28;20275;-82
2022/11/04 02:25:31;;;;;;;11.27;7.90;;;;;;;16.03;86.17;99614.88;5038509;28;20056;-82
2022/11/04 02:28:16;;;;;;;13.60;9.10;;;;;;;16.02;86.29;99616.84;5050513;28;20116;-82
2022/11/04 02:31:00;;;;;;;;;;;;;;;16.03;86.15;99604.72;5038223;28;20052;-83
2022/11/04 02:33:55;;;;;;;15.50;8.35;;;;;;;16.07;85.95;99599.25;5036126;28;19913;-82
2022/11/04 02:36:53;;;;;;;10.10;7.78;;;;;;;16.06;85.98;99584.75;5037723;28;20044;-83
2022/11/04 02:40:02;;;;;;;10.10;7.15;;;;;;;16.10;85.52;99588.28;5036109;28;20048;-82
2022/11/04 02:42:53;;;;;;;14.80;7.03;;;;;;;16.10;85.66;99587.53;5035470;28;20435;-81
2022/11/04 02:45:45;;;;;;;11.35;7.78;;;;;;;16.05;85.47;99563.19;5037541;28;20048;-82
2022/11/04 02:48:52;;;;;;;11.23;7.68;;;;;;;16.12;85.29;99564.03;5040371;28;20049;-82
2022/11/04 02:51:50;;;;;;;12.43;7.60;;;;;;;16.13;85.07;99554.63;5036687;28;20056;-82
2022/11/04 02:54:46;;;;;;;10.57;7.22;;;;;;;16.15;85.26;99563.25;5035698;28;20068;-82
2022/11/04 02:57:35;;;;;;;11.10;7.47;;;;;;;16.15;84.80;99554.25;5038826;28;20052;-82
2022/11/04 03:00:20;;;;;;;8.43;6.38;;;;;;;16.13;84.81;99537.38;5036422;28;20056;-80
2022/11/04 03:03:12;;;;;;;13.20;7.50;;;;;;;16.12;84.94;99533.84;5040624;28;20060;-82
2022/11/04 03:06:00;;;;;;;13.52;8.02;;;;;;;16.08;85.35;99529.50;5038704;28;20064;-82
2022/11/04 03:08:49;;;;;;;11.73;7.80;;;;;;;16.08;85.81;99521.28;5035704;28;20057;-82
2022/11/04 03:11:37;;;;;;;9.82;7.32;;;;;;;16.09;85.76;99514.66;5040341;28;20048;-82
2022/11/04 03:14:30;;;;;;;10.57;7.07;;;;;;;16.07;85.60;99509.53;5035802;28;20408;-82
2022/11/04 03:17:22;;;;;;;9.30;6.78;;;;;;;16.08;85.49;99497.41;5036002;28;20056;-82
2022/11/04 03:20:15;;;;;;;7.85;6.93;;;;;;;16.07;85.52;99484.84;5028746;28;20052;-82
2022/11/04 03:23:00;;;;;;;10.07;6.40;;;;;;;16.08;85.32;99478.19;5036753;28;20052;-82
2022/11/04 03:25:50;;;;;;;11.82;6.50;;;;;;;16.10;85.28;99478.59;5037762;28;20060;-82
2022/11/04 03:28:58;;;;;;;11.48;6.15;;;;;;;16.09;84.92;99488.00;5040591;28;20048;-82
2022/11/04 03:31:50;;;;;;;10.43;6.97;;;;;;;16.09;85.04;99482.53;5037613;28;20052;-81
2022/11/04 03:34:36;;;;;;;10.07;6.53;;;;;;;16.07;85.02;99478.56;5041546;28;20048;-81
2022/11/04 03:37:21;;;;;;;9.10;6.40;;;;;;;16.06;84.84;99477.00;5037837;28;20052;-82
2022/11/04 03:40:07;;;;;;;11.38;6.55;;;;;;;16.04;85.33;99468.38;5037219;28;20044;-82
2022/11/04 03:42:57;;;;;;;9.75;7.07;;;;;;;16.07;85.47;99459.38;5041232;28;20564;-81
2022/11/04 03:45:42;;;;;;;9.10;6.43;;;;;;;16.07;85.53;99464.88;5039146;28;20045;-81
2022/11/04 03:48:28;;;;;;;13.25;7.78;;;;;;;16.04;85.45;99469.16;5037424;28;20048;-81
2022/11/04 03:51:13;;;;;;;10.85;7.72;;;;;;;16.04;85.62;99468.38;5040990;28;20052;-82
2022/11/04 03:53:58;;;;;;;14.63;7.57;;;;;;;16.04;85.78;99462.91;5038790;28;20056;-81
2022/11/04 03:57:01;;;;;;;13.95;8.43;;;;;;;16.01;85.97;99458.94;5040721;28;20053;-82
2022/11/04 04:00:10;;;;;;;15.38;8.55;;;;;;;16.02;86.11;99460.53;5044171;28;20048;-81
2022/11/04 04:03:07;;;;;;;13.90;8.43;;;;;;;16.04;85.96;99460.94;5041552;28;20515;-81
2022/11/04 04:05:58;;;;;;;10.77;7.63;;;;;;;16.04;86.03;99463.69;5044212;28;20535;-82
2022/11/04 04:08:50;;;;;;;15.18;8.18;;;;;;;16.02;86.23;99471.50;5040756;28;20064;-81
2022/11/04 04:11:43;;;;;;;12.52;7.55;;;;;;;16.04;86.10;99485.63;5039673;28;20060;-81
2022/11/04 04:14:41;;;;;;;12.10;8.10;;;;;;;16.05;86.11;99487.16;5039356;28;20045;-81
2022/11/04 04:17:48;;;;;;;11.60;8.52;;;;;;;16.05;86.08;99481.69;5033886;28;20048;-81
2022/11/04 04:20:36;;;;;;;12.05;7.15;;;;;;;16.05;85.77;99473.47;5038217;28;20057;-82
2022/11/04 04:29:39;;;;;;;10.07;8.02;;;;;;;16.04;85.99;99444.50;5041041;28;20060;-82
2022/11/04 04:32:27;;;;;;;17.10;8.55;;;;;;;16.05;86.19;99448.03;5039136;28;20048;-82
2022/11/04 04:47:45;;;;;;;16.10;8.88;;;;;;;16.06;86.12;99419.41;5024187;28;20048;-82
2022/11/04 04:50:34;;;;;;;16.85;9.05;;;;;;;16.05;86.35;99413.13;5022789;28;20071;-82
2022/11/04 04:53:19;;;;;;;12.32;8.43;;;;;;;16.04;86.45;99406.09;5039460;28;20052;-82
2022/11/04 04:56:04;;;;;;;18.02;8.95;;;;;;;16.03;86.43;99407.25;5042753;28;20052;-82
2022/11/04 04:58:49;;;;;;;;;;;;;;;16.05;86.38;99407.66;5040763;28;20650;-81
2022/11/04 05:01:34;;;;;;;14.77;8.00;;;;;;;16.05;86.27;99404.91;5039425;28;19912;-82
2022/11/04 05:04:18;;;;;;;11.45;8.45;;;;;;;16.04;86.06;99408.84;5040016;28;20048;-82
2022/11/04 05:07:03;;;;;;;13.32;8.02;;;;;;;16.05;85.85;99415.88;5080768;22;20060;-80
2022/11/04 05:09:48;;;;;;;8.27;6.35;;;;;;;16.06;86.05;99413.91;5069661;28;20048;-79
2022/11/04 05:15:40;;;;;;;12.30;8.50;;;;;;;16.05;85.61;99404.16;5065232;28;20530;-80
2022/11/04 05:18:24;;;;;;;14.27;8.80;;;;;;;16.05;86.07;99410.38;5079259;28;20043;-79
2022/11/04 05:21:11;;;;;;;;;;;;;;;16.08;85.63;99406.09;5072642;28;20060;-78
2022/11/04 05:23:56;;;;;;;14.80;8.93;;;;;;;16.02;85.75;99386.50;5088475;28;19912;-78
2022/11/04 05:26:41;;;;;;;12.30;8.23;;;;;;;16.05;85.40;99393.94;5074166;28;20521;-78
2022/11/04 05:29:26;;;;;;;13.00;8.80;;;;;;;16.07;85.58;99401.78;5056833;28;20052;-79
2022/11/04 05:32:10;;;;;;;;;;;;;;;16.08;85.40;99400.63;5075089;28;20052;-80
2022/11/04 05:34:55;;;;;;;17.67;10.00;;;;;;;16.05;85.70;99396.69;5074702;28;19912;-79
2022/11/04 05:37:40;;;;;;;;;;;;;;;16.07;85.79;99380.63;5064455;28;20463;-81
2022/11/04 05:40:24;;;;;;;15.90;10.75;;;;;;;16.08;85.96;99384.16;5075043;28;19913;-81
2022/11/04 05:43:10;;;;;;;16.90;9.65;;;;;;;16.08;86.04;99387.69;5076588;28;20048;-82
2022/11/04 05:45:57;;;;;;;18.92;9.77;;;;;;;16.10;86.58;99385.34;5077105;28;20523;-80
2022/11/04 05:48:42;;;;;;;17.08;10.55;;;;;;;16.08;86.55;99376.72;5093190;28;20141;-87
2022/11/04 05:51:27;;;;;;;16.15;10.57;;;;;;;16.09;86.94;99385.75;5073461;28;20040;-81
2022/11/04 05:54:12;;;;;;;;;;;;;;;16.08;86.58;99387.69;5077622;28;20055;-85
2022/11/04 05:57:02;;;;;;;13.02;9.57;;;;;;;16.09;86.70;99372.03;5081217;28;19912;-87
2022/11/04 05:59:47;;;;;;;15.82;9.02;;;;;;;16.06;86.25;99390.03;5099402;28;20051;-85
2022/11/04 06:02:32;;;;;;;19.13;9.23;;;;;;;16.05;86.35;99361.03;5088784;28;20063;-86
2022/11/04 06:05:17;;;;;;;17.15;9.48;;;;;;;16.06;86.26;99351.63;5083527;28;20526;-89
2022/11/04 06:08:03;;;;;;;14.07;10.57;;;;;;;16.05;86.39;99350.06;5087996;28;20047;-89
2022/11/04 06:10:48;;;;;;;15.80;9.75;;;;;;;16.08;86.50;99364.97;5073471;28;20048;-87
2022/11/04 06:13:34;;;;;;;13.70;7.70;;;;;;;16.09;86.55;99374.78;5079770;28;20052;-86
2022/11/04 06:16:20;;;;;;;17.45;11.88;;;;;;;16.06;87.26;99406.47;5069852;28;20051;-86
2022/11/04 06:35:55;;;;;;;15.75;9.60;;;;;;;15.99;90.55;99383.75;5058419;28;20684;-86
2022/11/04 06:38:40;;;;;;;13.73;7.80;;;;;;;15.99;89.65;99403.72;5060852;28;20048;-86
2022/11/04 06:41:25;;;;;;;9.05;5.90;;;;;;;16.02;89.13;99405.69;5057158;28;20064;-86
2022/11/04 06:44:10;;;;;;;9.77;6.32;;;;;;;16.07;88.00;99424.50;5062950;28;20051;-88
2022/11/04 06:46:54;;;;;;;5.00;3.63;;;;;;;16.13;87.72;99428.47;5057955;28;20048;-86
2022/11/04 06:49:38;;;;;;;9.27;5.63;;;;;;;16.17;87.26;99445.72;5056610;28;20072;-86
2022/11/04 06:52:23;;;;;;;6.90;5.07;;;;;;;16.18;86.48;99449.25;5055476;28;20519;-85
2022/11/04 06:55:08;;;;;;;6.00;3.70;;;;;;;16.14;86.25;99453.94;5077284;28;20514;-88
2022/11/04 06:57:53;;;;;;;8.10;4.82;;;;;;;16.12;85.72;99459.81;5074533;28;20051;-86
2022/11/04 07:00:38;;;;;;;5.72;3.47;;;;;;;16.05;85.10;99480.94;5081020;28;20056;-86
2022/11/04 07:03:23;;;;;;;5.60;3.58;;;;;;;16.02;85.09;99479.72;5081026;28;20407;-85
2022/11/04 07:06:08;;;;;;;;;;;;;;;15.90;84.42;99477.28;5078647;28;20052;-84
2022/11/04 07:08:57;;;;;;;8.60;3.25;;;;;;;15.94;85.10;99475.38;5073063;28;20387;-84
2022/11/04 07:11:43;;;;;;;7.45;3.63;;;;;;;16.02;84.22;99471.50;5075508;28;20407;-85
2022/11/04 07:14:28;;;;;;;10.98;3.28;;;;;;;16.02;83.18;99482.47;5064032;28;20542;-84
2022/11/04 07:17:13;;;;;;;;;;;;;;;16.03;81.18;99486.00;5088782;28;20510;-85
2022/11/04 07:19:57;;;;;;;6.00;2.95;;;;;;;16.18;82.62;99496.69;5080731;28;19913;-82
2022/11/04 07:22:43;;;;;;;6.20;2.15;;;;;;;16.20;81.67;99510.03;5074865;28;20051;-84
2022/11/04 07:25:27;;;;;;;;;;;;;;;15.82;78.37;99525.00;5060827;28;20056;-85
2022/11/04 07:28:12;;;;;;;5.68;1.98;;;;;;;15.71;79.26;99535.09;5093212;28;19912;-85
2022/11/04 07:30:58;;;;;;;;;;;;;;;15.51;77.23;99544.66;5079735;28;20423;-84
2022/11/04 07:33:42;;;;;;;4.95;1.75;;;;;;;15.62;77.48;99551.06;5074947;28;20375;-84
2022/11/04 07:36:28;;;;;;;2.53;0.77;;;;;;;15.61;78.82;99557.69;5076720;28;20047;-85
2022/11/04 07:39:12;;;;;;;1.42;0.68;;;;;;;15.65;78.42;99555.78;5078179;28;20502;-87
2022/11/04 07:41:57;;;;;;;4.72;2.42;;;;;;;15.78;79.84;99535.16;5080007;28;20051;-86
2022/11/04 07:44:41;;;;;;;2.40;1.67;;;;;;;15.89;80.30;99525.06;5073647;28;20051;-81
2022/11/04 07:47:29;;;;;;;0.95;0.85;;;;;;;15.82;78.50;99528.53;5073475;28;20051;-83
2022/11/04 07:50:14;;;;;;;3.33;1.58;;;;;;;15.81;77.18;99515.19;5077086;28;20063;-87
2022/11/04 07:52:59;;;;;;;5.15;1.20;;;;;;;15.82;78.17;99519.53;5079276;28;20054;-86
2022/11/04 07:55:48;;;;;;;1.08;0.63;;;;;;;15.80;76.93;99488.94;5073393;28;20052;-84
2022/11/04 07:58:33;;;;;;;1.77;0.93;;;;;;;15.90;78.69;99414.22;5079596;28;20094;-86
2022/11/04 08:01:22;;;;;;;3.70;2.13;;;;;;;16.07;81.85;99396.31;5080124;28;20059;-85
2022/11/04 08:04:07;;;;;;;3.28;1.05;;;;;;;16.06;80.63;99461.34;5079181;28;20068;-86
2022/11/04 08:06:52;;;;;;;0.95;0.40;;;;;;;15.95;78.66;99465.94;5074543;28;20071;-85
2022/11/04 08:09:37;;;;;;;;;;;;;;;15.93;77.79;99460.09;5073274;28;20051;-85
2022/11/04 08:12:23;;;;;;;4.38;1.02;;;;;;;15.91;77.87;99462.41;5092331;28;19912;-83
2022/11/04 08:15:08;;;;;;;2.67;1.05;;;;;;;15.87;78.24;99458.06;5078473;28;20048;-85
2022/11/04 08:17:52;;;;;;;1.85;1.13;;;;;;;15.88;78.85;99463.19;5071764;28;20407;-87
2022/11/04 08:20:37;;;;;;;3.33;1.00;;;;;;;15.87;78.61;99471.78;5070942;28;20043;-86
2022/11/04 08:23:22;;;;;;;5.28;1.20;;;;;;;15.78;78.13;99489.34;5072744;28;20420;-86
2022/11/04 08:26:08;;;;;;;;;;;;;;;15.81;78.82;99516.00;5085149;28;20048;-83
2022/11/04 08:28:53;;;;;;;4.88;1.70;;;;;;;15.84;78.22;99511.72;5070700;28;19916;-83
2022/11/04 08:31:39;;;;;;;4.57;1.00;;;;;;;15.77;76.05;99509.69;5058139;28;20551;-83
2022/11/04 08:34:23;;;;;;;5.18;1.65;;;;;;;15.79;76.63;99501.09;5089769;28;20055;-83
2022/11/04 08:37:08;;;;;;;7.78;2.25;;;;;;;15.85;77.46;99499.56;5072789;28;20047;-82
2022/11/04 08:39:52;;;;;;;9.57;1.65;;;;;;;15.94;78.66;99507.47;5078904;28;20067;-86
2022/11/04 08:42:38;;;;;;;8.13;3.35;;;;;;;15.85;76.57;99509.78;5082950;28;20048;-84
2022/11/04 08:45:23;;;;;;;;;;;;;;;15.77;76.00;99500.69;5083533;28;20060;-84
2022/11/04 08:48:09;;;;;;;12.05;3.15;;;;;;;15.73;74.15;99500.66;5082590;28;19920;-84
2022/11/04 08:50:58;;;;;;;3.70;1.88;;;;;;;15.57;72.40;99482.91;5076176;28;20063;-85
2022/11/04 08:53:43;;;;;;;3.78;1.17;;;;;;;15.55;73.97;99479.75;5083727;28;20044;-87
2022/11/04 08:56:30;;;;;;;4.47;0.75;;;;;;;15.43;73.20;99477.28;5084374;28;20047;-87
2022/11/04 08:59:16;;;;;;;3.30;1.50;;;;;;;15.43;75.03;99469.06;5085957;28;20043;-86
2022/11/04 09:02:00;;;;;;;3.85;1.45;;;;;;;15.64;75.16;99474.75;5083828;28;20059;-85
2022/11/04 09:04:45;;;;;;;5.80;1.20;;;;;;;15.69;75.53;99494.38;5083256;28;20052;-85
2022/11/04 09:07:30;;;;;;;;;;;;;;;15.55;72.10;99487.97;5081722;28;20056;-85
2022/11/04 09:10:17;;;;;;;1.33;0.50;;;;;;;15.69;73.84;99494.38;5087396;28;19916;-85
2022/11/04 09:13:01;;;;;;;3.22;0.93;;;;;;;15.70;74.42;99495.13;5083939;28;20040;-83
2022/11/04 09:15:47;;;;;;;7.30;1.27;;;;;;;15.68;74.19;99489.25;5077115;28;20063;-84
2022/11/04 09:18:33;;;;;;;4.25;0.60;;;;;;;15.53;70.04;99477.41;5098833;28;20051;-84
2022/11/04 09:21:18;;;;;;;2.47;0.82;;;;;;;15.72;74.92;99479.91;5083909;28;20048;-82
2022/11/04 09:24:04;;;;;;;4.03;0.70;;;;;;;15.59;72.11;99475.09;5079098;28;20043;-82
2022/11/04 09:26:52;;;;;;;2.78;0.70;;;;;;;15.46;71.93;99476.50;5076583;28;20052;-82
2022/11/04 09:29:38;;;;;;;1.40;0.65;;;;;;;15.57;72.29;99471.94;5076729;28;20055;-82
2022/11/04 09:32:23;;;;;;;3.75;0.52;;;;;;;15.67;73.66;99490.41;5078806;28;20434;-83
2022/11/04 09:35:09;;;;;;;;;;;;;;;15.58;70.92;99487.22;5079572;28;20119;-83
2022/11/04 09:37:54;;;;;;;2.30;0.60;;;;;;;15.56;70.33;99495.03;5081017;28;19912;-82
2022/11/04 09:40:38;;;;;;;;;;;;;;;15.71;73.41;99502.19;5087830;28;20039;-82
2022/11/04 09:43:52;;;;;;;2.25;0.60;;;;;;;15.79;72.89;99506.59;5083816;28;19913;-81
2022/11/04 09:46:38;;;;;;;4.03;0.60;;;;;;;15.79;72.21;99503.84;5064143;28;20060;-81
2022/11/04 09:49:24;;;;;;;5.80;2.75;;;;;;;15.80;71.32;99497.16;5062820;28;20534;-82
2022/11/04 09:52:22;;;;;;;3.78;0.68;;;;;;;15.59;70.58;99497.81;5077273;28;20043;-85
2022/11/04 09:55:45;;;;;;;5.22;0.88;;;;;;;15.63;69.12;99497.84;5077908;28;20043;-83
2022/11/04 09:58:36;;;;;;;1.05;0.50;;;;;;;15.65;69.49;99500.97;5074719;28;20047;-84
2022/11/04 10:01:38;;;;;;;4.30;0.68;;;;;;;15.73;73.41;99502.63;5082448;28;20044;-84
2022/11/04 10:04:48;;;;;;;4.60;1.00;;;;;;;15.91;73.85;99506.28;5083365;28;20048;-84
2022/11/04 10:08:03;;;;;;;3.20;0.90;;;;;;;15.90;70.44;99501.19;5077405;28;20417;-84
2022/11/04 10:11:07;;;;;;;2.00;0.50;;;;;;;15.85;72.09;99499.56;5071955;28;20079;-84
2022/11/04 10:14:13;;;;;;;0.35;0.30;;;;;;;15.80;69.10;99491.69;5087048;28;20114;-83
2022/11/04 10:17:18;;;;;;;1.73;0.77;;;;;;;15.78;68.66;99502.25;5098894;28;20047;-83
2022/11/04 10:20:26;;;;;;;2.33;0.65;;;;;;;15.85;69.33;99507.03;5093872;28;20047;-84
2022/11/04 10:23:27;;;;;;;1.85;0.52;;;;;;;15.79;68.70;99506.59;5087400;28;20046;-84
2022/11/04 10:26:16;;;;;;;1.98;0.50;;;;;;;15.73;68.12;99508.09;5088031;28;20043;-82
2022/11/04 10:29:08;;;;;;;6.85;0.60;;;;;;;15.87;69.97;99516.44;5084581;28;20059;-82
2022/11/04 10:31:55;;;;;;;0.80;0.65;;;;;;;15.92;69.19;99509.81;5087397;28;20039;-82
2022/11/04 10:34:48;;;;;;;1.77;0.50;;;;;;;16.02;72.59;99514.56;5073426;28;20059;-83
2022/11/04 10:37:33;;;;;;;5.75;0.60;;;;;;;16.03;71.54;99516.94;5083548;28;20052;-82
2022/11/04 10:40:31;;;;;;;2.72;0.60;;;;;;;16.10;72.83;99525.22;5091592;28;20058;-82
2022/11/04 10:43:25;;;;;;;2.60;0.52;;;;;;;16.23;75.68;99531.19;5089159;28;20043;-84
2022/11/04 10:46:25;;;;;;;1.30;0.50;;;;;;;16.24;75.40;99532.78;5088339;28;20047;-83
2022/11/04 10:49:44;;;;;;;3.58;0.50;;;;;;;16.26;75.84;99536.69;5086158;28;20040;-83
2022/11/04 10:52:33;;;;;;;6.35;0.88;;;;;;;16.26;75.85;99533.94;5107213;28;20054;-83
2022/11/04 10:55:49;;;;;;;0.90;0.63;;;;;;;16.19;74.64;99530.38;5093950;28;20041;-81
2022/11/04 10:58:45;;;;;;;3.13;0.70;;;;;;;16.16;74.17;99523.69;5078757;28;20051;-82
2022/11/04 11:01:33;;;;;;;0.90;0.50;;;;;;;16.15;73.98;99533.09;5090273;28;20684;-83
2022/11/04 11:04:25;;;;;;;1.17;0.60;;;;;;;16.10;73.18;99532.69;5091436;28;20526;-82
2022/11/04 11:07:21;;;;;;;2.00;0.60;;;;;;;16.08;71.84;99535.78;5091227;28;20043;-85
2022/11/04 11:10:18;;;;;;;2.10;0.45;;;;;;;16.09;73.65;99528.34;5086699;28;20052;-84
2022/11/04 11:13:06;;;;;;;1.02;0.60;;;;;;;16.16;73.52;99531.13;5092789;28;20051;-84
2022/11/04 11:16:06;;;;;;;1.52;0.57;;;;;;;16.15;72.71;99533.09;5105439;28;20043;-82
2022/11/04 11:19:12;;;;;;;3.97;0.85;;;;;;;16.18;74.61;99521.38;5089410;28;20047;-84
2022/11/04 11:21:58;;;;;;;1.83;0.73;;;;;;;16.22;75.01;99519.44;5092195;28;20051;-82
2022/11/04 11:24:49;;;;;;;3.70;0.60;;;;;;;16.34;77.14;99523.03;5077414;28;20415;-83
2022/11/04 11:27:36;;;;;;;1.05;0.40;;;;;;;16.29;74.80;99515.94;5075287;28;20043;-85
2022/11/04 11:30:28;;;;;;;1.08;0.28;;;;;;;16.29;74.22;99513.22;5101331;28;20063;-83
2022/11/04 11:33:28;;;;;;;0.35;0.30;;;;;;;16.37;76.02;99514.03;5104164;28;20048;-84
2022/11/04 11:36:23;;;;;;;2.95;0.50;;;;;;;16.37;75.44;99501.09;5089118;28;20039;-85
2022/11/04 11:39:12;;;;;;;1.15;0.52;;;;;;;16.37;74.13;99498.34;5079839;28;20058;-86
2022/11/04 11:42:07;;;;;;;1.55;0.43;;;;;;;16.34;73.11;99501.09;5087306;28;20059;-86
2022/11/04 11:45:02;;;;;;;0.20;0.20;;;;;;;16.31;71.78;99493.59;5084202;28;20659;-85
2022/11/04 11:47:53;;;;;;;0.93;0.30;;;;;;;16.32;71.76;99503.41;5060719;28;20064;-82
2022/11/04 11:50:58;;;;;;;2.35;0.40;;;;;;;16.38;72.25;99504.63;5066139;28;20055;-85
2022/11/04 11:54:12;;;;;;;2.88;0.50;;;;;;;16.31;70.28;99504.56;5079670;28;20048;-86
2022/11/04 11:57:02;;;;;;;0.60;0.40;;;;;;;16.34;69.73;99509.31;5077788;28;20059;-85
2022/11/04 11:59:56;;;;;;;1.65;0.40;;;;;;;16.41;70.57;99498.34;5076022;28;20040;-85
2022/11/04 12:02:54;;;;;;;1.05;0.22;;;;;;;16.50;72.55;99504.31;5070581;28;20059;-83
2022/11/04 12:05:54;;;;;;;2.60;0.43;;;;;;;16.44;70.69;99497.59;5078815;28;20047;-86
2022/11/04 12:09:03;;;;;;;1.77;0.28;;;;;;;16.49;70.26;99510.97;5088158;28;20055;-85
2022/11/04 12:12:10;;;;;;;4.25;0.40;;;;;;;16.49;69.91;99510.97;5089163;28;20047;-84
2022/11/04 12:15:26;;;;;;;1.63;0.30;;;;;;;16.70;68.85;99505.63;5087031;28;20051;-84
2022/11/04 12:18:31;;;;;;;2.47;0.20;;;;;;;16.99;64.38;99506.50;5081281;28;20047;-82
2022/11/04 12:21:32;;;;;;;112.05;18.52;;;;;;;17.16;61.99;99499.50;5078755;28;20047;-83
2022/11/04 12:24:35;;;;;;;27.27;5.55;;;;;;;17.30;59.82;99513.25;5078706;28;20040;-83
2022/11/04 12:27:29;;;;;;;6.55;1.25;;;;;;;17.28;59.71;99510.09;5078269;28;20059;-82
2022/11/04 12:30:18;;;;;;;2.17;0.30;;;;;;;17.31;57.25;99512.09;5076714;28;20115;-82
2022/11/04 12:33:02;;;;;;;1.35;0.32;;;;;;;17.39;59.23;99514.44;5080848;28;20051;-81
2022/11/04 12:36:14;;;;;;;0.95;0.10;;;;;;;17.52;58.69;99512.13;5079236;28;20047;-82
2022/11/04 12:39:20;;;;;;;0.10;0.10;;;;;;;17.58;57.67;99513.28;5074645;28;20047;-81
2022/11/04 12:42:33;;;;;;;0.68;0.20;;;;;;;17.73;57.25;99511.38;5099666;28;20075;-80
2022/11/04 12:46:20;;;;;;;0.68;0.20;;;;;;;17.82;55.43;99511.78;5083200;28;20043;-81
2022/11/04 12:49:17;;;;;;;0.20;0.15;;;;;;;18.09;56.61;99514.88;5075389;28;20044;-81
2022/11/04 12:52:08;;;;;;;2.75;0.50;;;;;;;18.34;55.52;99508.16;5077448;28;20051;-81
2022/11/04 12:55:20;;;;;;;0.85;0.38;;;;;;;18.62;53.81;99512.84;5078394;28;20048;-79
2022/11/04 12:58:26;;;;;;;1.05;0.30;;;;;;;19.00;53.80;99511.09;5081209;28;20043;-80
2022/11/04 13:01:17;;;;;;;0.57;0.20;;;;;;;19.25;51.67;99512.97;5077738;28;20407;-81
2022/11/04 13:04:11;;;;;;;0.47;0.20;;;;;;;19.49;52.37;99507.31;5076460;28;20514;-81
2022/11/04 13:07:15;;;;;;;4.07;0.20;;;;;;;19.67;51.35;99509.16;5078327;28;20403;-79
2022/11/04 13:10:13;;;;;;;2.60;0.32;;;;;;;19.71;50.74;99510.69;5071430;28;20048;-81
2022/11/04 13:13:01;;;;;;;0.52;0.28;;;;;;;19.56;50.36;99507.25;5077116;28;20035;-81
2022/11/04 13:15:51;;;;;;;0.15;0.10;;;;;;;19.59;49.07;99498.19;5076901;28;20522;-82
2022/11/04 13:18:38;;;;;;;0.43;0.10;;;;;;;19.71;49.08;99496.91;5073754;28;20040;-81
2022/11/04 13:21:27;;;;;;;1.58;0.20;;;;;;;19.76;50.39;99504.75;5074069;28;20044;-82
2022/11/04 13:24:29;;;;;;;2.47;0.20;;;;;;;19.89;50.30;99496.75;5086625;28;20051;-80
2022/11/04 13:27:32;;;;;;;0.68;0.25;;;;;;;19.87;50.33;99499.13;5070991;28;20047;-80
2022/11/04 13:30:59;;;;;;;0.63;0.20;;;;;;;19.87;50.51;99499.13;5064482;28;20044;-79
2022/11/04 13:33:49;;;;;;;;;;;;;;;19.88;50.26;99486.91;5062610;28;20051;-79
2022/11/04 13:37:04;;;;;;;4.40;0.20;;;;;;;19.91;49.11;99472.31;5086683;28;19916;-79
2022/11/04 13:39:56;;;;;;;9.00;0.40;;;;;;;19.85;50.35;99465.66;5073956;28;20507;-79
2022/11/04 13:46:29;;;;;;;7.78;0.47;;;;;;;19.77;49.69;99462.16;5076974;28;20044;-79
2022/11/04 13:49:32;;;;;;;1.85;0.28;;;;;;;19.76;49.52;99468.88;5074834;28;20522;-79
2022/11/04 13:52:17;;;;;;;0.68;0.20;;;;;;;19.67;49.76;99471.31;5077725;28;20076;-79
2022/11/04 13:55:07;;;;;;;2.38;0.40;;;;;;;19.65;49.17;99473.72;5075931;28;20047;-79
2022/11/04 13:58:01;;;;;;;2.08;0.15;;;;;;;19.66;49.62;99480.03;5066060;28;20052;-79
2022/11/04 14:01:08;;;;;;;8.43;0.30;;;;;;;19.60;49.86;99472.19;5074015;28;20039;-79
2022/11/04 14:04:18;;;;;;;0.28;0.10;;;;;;;19.46;50.59;99480.53;5070026;28;20043;-79
2022/11/04 14:07:07;;;;;;;0.85;0.40;;;;;;;19.40;49.73;99489.63;5074398;28;20047;-78
2022/11/04 14:09:53;;;;;;;1.95;0.20;;;;;;;19.38;50.25;99492.78;5072185;28;20059;-78
2022/11/04 14:12:38;;;;;;;0.13;0.10;;;;;;;19.33;50.52;99493.22;5071862;28;20407;-78
2022/11/04 14:16:00;;;;;;;1.65;0.20;;;;;;;19.28;49.43;99490.09;5073480;28;20522;-79
2022/11/04 14:18:47;;;;;;;0.28;0.20;;;;;;;19.15;48.71;99479.53;5066590;28;20063;-80
2022/11/04 14:22:04;;;;;;;9.40;0.47;;;;;;;19.06;47.85;99470.94;5069791;28;20055;-76
2022/11/04 14:24:58;;;;;;;1.05;0.63;;;;;;;19.08;49.70;99465.03;5068963;28;20087;-78
2022/11/04 14:27:45;;;;;;;0.88;0.30;;;;;;;19.03;50.06;99465.44;5070868;28;20048;-80